AMX782 MMGL-KLAX
Flight info
| Callsign | AMX782 |
|---|---|
| Flight time | 2h 56m |
| Altitude | 38000 |
| Route | SEDEM1B SEDEM UJ3 MZT UJ7 CEN DCT PILNA UT60 AXASA UT41 ASUTA DCT AMMOR OLAAA2 |
| Aircraft | B38M/M-SDE1FGHILORVWXY/HB1 |
Departure
| Time | 2026-04-22 02:28 |
|---|---|
| Airport | Guadalajara International Airport (MMGL) |
Arrival
| Time | 2026-04-22 05:25 |
|---|---|
| Airport | Los Angeles International Airport (KLAX) |
| Time | Latitude | Longitude | Altitude | Speed | Heading |
|---|---|---|---|---|---|
| 2026-04-22 01:49 | 20.52428 | -103.30072 | 5028 ft | 0 kts | 19° |
| 2026-04-22 01:54 | 20.52427 | -103.30072 | 5031 ft | 0 kts | 19° |
| 2026-04-22 02:13 | 20.52427 | -103.30073 | 4995 ft | 0 kts | 19° |
| 2026-04-22 02:14 | 20.52410 | -103.30080 | 5023 ft | 4 kts | 28° |
| 2026-04-22 02:14 | 20.52389 | -103.30096 | 5030 ft | 4 kts | 54° |
| 2026-04-22 02:14 | 20.52382 | -103.30120 | 5029 ft | 4 kts | 101° |
| 2026-04-22 02:14 | 20.52384 | -103.30131 | 5025 ft | 1 kts | 108° |
| 2026-04-22 02:18 | 20.52384 | -103.30130 | 5025 ft | 1 kts | 108° |
| 2026-04-22 02:19 | 20.52380 | -103.30118 | 5029 ft | 3 kts | 108° |
| 2026-04-22 02:19 | 20.52370 | -103.30084 | 5029 ft | 6 kts | 110° |
| 2026-04-22 02:19 | 20.52349 | -103.30030 | 5028 ft | 9 kts | 131° |
| 2026-04-22 02:19 | 20.52282 | -103.30037 | 5031 ft | 12 kts | 200° |
| 2026-04-22 02:20 | 20.52192 | -103.30060 | 5031 ft | 15 kts | 164° |
| 2026-04-22 02:20 | 20.52154 | -103.29998 | 5031 ft | 10 kts | 114° |
| 2026-04-22 02:20 | 20.52119 | -103.29916 | 5027 ft | 14 kts | 114° |
| 2026-04-22 02:20 | 20.52076 | -103.29812 | 5028 ft | 17 kts | 114° |
| 2026-04-22 02:21 | 20.52022 | -103.29686 | 5027 ft | 20 kts | 114° |
| 2026-04-22 02:21 | 20.51974 | -103.29573 | 5027 ft | 13 kts | 115° |
| 2026-04-22 02:21 | 20.51923 | -103.29533 | 5032 ft | 5 kts | 201° |
| 2026-04-22 02:21 | 20.51903 | -103.29542 | 5032 ft | 1 kts | 205° |
| 2026-04-22 02:22 | 20.51902 | -103.29542 | 5032 ft | 0 kts | 205° |
| 2026-04-22 02:24 | 20.51891 | -103.29548 | 5028 ft | 6 kts | 205° |
| 2026-04-22 02:25 | 20.51837 | -103.29575 | 5028 ft | 9 kts | 205° |
| 2026-04-22 02:25 | 20.51827 | -103.29631 | 5029 ft | 9 kts | 291° |
| 2026-04-22 02:25 | 20.51834 | -103.29647 | 5032 ft | 0 kts | 294° |
| 2026-04-22 02:27 | 20.51837 | -103.29654 | 5032 ft | 2 kts | 294° |
| 2026-04-22 02:27 | 20.51859 | -103.29706 | 5032 ft | 19 kts | 294° |
| 2026-04-22 02:28 | 20.52012 | -103.30069 | 5029 ft | 89 kts | 294° |
| 2026-04-22 02:28 | 20.52357 | -103.30892 | 5029 ft | 151 kts | 293° |
| 2026-04-22 02:28 | 20.52833 | -103.32069 | 5270 ft | 186 kts | 291° |
| 2026-04-22 02:28 | 20.53401 | -103.33424 | 5845 ft | 212 kts | 291° |
| 2026-04-22 02:29 | 20.54003 | -103.34874 | 6725 ft | 213 kts | 292° |
| 2026-04-22 02:29 | 20.54595 | -103.36332 | 7587 ft | 215 kts | 292° |
| 2026-04-22 02:29 | 20.55181 | -103.37801 | 8217 ft | 228 kts | 292° |
| 2026-04-22 02:29 | 20.55853 | -103.39463 | 8678 ft | 246 kts | 292° |
| 2026-04-22 02:30 | 20.56524 | -103.41110 | 9720 ft | 241 kts | 294° |
| 2026-04-22 02:30 | 20.57188 | -103.42782 | 10487 ft | 249 kts | 293° |
| 2026-04-22 02:30 | 20.57860 | -103.44501 | 11220 ft | 253 kts | 293° |
| 2026-04-22 02:30 | 20.58535 | -103.46229 | 11920 ft | 259 kts | 292° |
| 2026-04-22 02:31 | 20.59465 | -103.47930 | 12390 ft | 276 kts | 311° |
| 2026-04-22 02:31 | 20.60996 | -103.49260 | 12753 ft | 295 kts | 330° |
| 2026-04-22 02:31 | 20.62863 | -103.50336 | 13084 ft | 315 kts | 324° |
| 2026-04-22 02:31 | 20.64549 | -103.51923 | 13436 ft | 332 kts | 317° |
| 2026-04-22 02:32 | 20.66297 | -103.53610 | 13888 ft | 345 kts | 318° |
| 2026-04-22 02:32 | 20.68111 | -103.55329 | 14484 ft | 349 kts | 318° |
| 2026-04-22 02:32 | 20.69935 | -103.57046 | 15153 ft | 352 kts | 318° |
| 2026-04-22 02:32 | 20.71787 | -103.58778 | 15785 ft | 355 kts | 318° |
| 2026-04-22 02:33 | 20.73650 | -103.60519 | 16420 ft | 358 kts | 318° |
| 2026-04-22 02:33 | 20.75532 | -103.62276 | 17056 ft | 360 kts | 318° |
| 2026-04-22 02:33 | 20.77428 | -103.64043 | 17663 ft | 363 kts | 318° |
| 2026-04-22 02:33 | 20.79341 | -103.65828 | 18278 ft | 366 kts | 318° |
| 2026-04-22 02:34 | 20.81269 | -103.67629 | 18778 ft | 370 kts | 317° |
| 2026-04-22 02:34 | 20.83209 | -103.69443 | 19302 ft | 372 kts | 317° |
| 2026-04-22 02:34 | 20.85162 | -103.71269 | 19822 ft | 374 kts | 317° |
| 2026-04-22 02:34 | 20.87126 | -103.73105 | 20347 ft | 376 kts | 317° |
| 2026-04-22 02:35 | 20.89099 | -103.74951 | 20875 ft | 377 kts | 317° |
| 2026-04-22 02:35 | 20.91059 | -103.76783 | 21374 ft | 379 kts | 317° |
| 2026-04-22 02:35 | 20.93052 | -103.78649 | 21889 ft | 382 kts | 317° |
| 2026-04-22 02:35 | 20.95060 | -103.80528 | 22376 ft | 385 kts | 317° |
| 2026-04-22 02:36 | 20.97079 | -103.82421 | 22880 ft | 387 kts | 317° |
| 2026-04-22 02:36 | 20.99116 | -103.84328 | 23036 ft | 389 kts | 316° |
| 2026-04-22 02:36 | 21.01150 | -103.86235 | 23063 ft | 387 kts | 316° |
| 2026-04-22 02:36 | 21.03177 | -103.88136 | 23050 ft | 387 kts | 316° |
| 2026-04-22 02:37 | 21.05203 | -103.90037 | 23063 ft | 387 kts | 316° |
| 2026-04-22 02:37 | 21.07223 | -103.91930 | 23074 ft | 386 kts | 316° |
| 2026-04-22 02:37 | 21.09248 | -103.93831 | 23060 ft | 386 kts | 316° |
| 2026-04-22 02:37 | 21.11186 | -103.95815 | 23075 ft | 386 kts | 311° |
| 2026-04-22 02:38 | 21.13051 | -103.97893 | 23569 ft | 387 kts | 312° |
| 2026-04-22 02:38 | 21.14929 | -103.99965 | 24006 ft | 389 kts | 312° |
| 2026-04-22 02:38 | 21.16825 | -104.02044 | 24410 ft | 391 kts | 312° |
| 2026-04-22 02:38 | 21.18733 | -104.04130 | 24855 ft | 393 kts | 312° |
| 2026-04-22 02:39 | 21.20629 | -104.06203 | 25240 ft | 394 kts | 312° |
| 2026-04-22 02:39 | 21.22547 | -104.08318 | 25637 ft | 396 kts | 311° |
| 2026-04-22 02:39 | 21.24466 | -104.10447 | 26048 ft | 398 kts | 311° |
| 2026-04-22 02:39 | 21.26389 | -104.12579 | 26440 ft | 400 kts | 311° |
| 2026-04-22 02:40 | 21.28236 | -104.14629 | 26819 ft | 402 kts | 311° |
| 2026-04-22 02:40 | 21.30187 | -104.16795 | 27147 ft | 405 kts | 311° |
| 2026-04-22 02:40 | 21.32151 | -104.18975 | 27550 ft | 406 kts | 311° |
| 2026-04-22 02:40 | 21.34119 | -104.21158 | 27963 ft | 407 kts | 311° |
| 2026-04-22 02:41 | 21.36095 | -104.23352 | 28278 ft | 411 kts | 311° |
| 2026-04-22 02:41 | 21.38085 | -104.25561 | 28623 ft | 413 kts | 311° |
| 2026-04-22 02:41 | 21.40085 | -104.27782 | 29000 ft | 415 kts | 311° |
| 2026-04-22 02:41 | 21.42093 | -104.30014 | 29366 ft | 417 kts | 311° |
| 2026-04-22 02:42 | 21.44113 | -104.32259 | 29721 ft | 419 kts | 311° |
| 2026-04-22 02:42 | 21.46142 | -104.34515 | 30085 ft | 421 kts | 311° |
| 2026-04-22 02:42 | 21.48181 | -104.36785 | 30364 ft | 423 kts | 311° |
| 2026-04-22 02:42 | 21.49541 | -104.38298 | 30563 ft | 424 kts | 311° |
| 2026-04-22 02:43 | 21.51594 | -104.40583 | 30839 ft | 426 kts | 311° |
| 2026-04-22 02:43 | 21.54329 | -104.43631 | 31114 ft | 429 kts | 311° |
| 2026-04-22 02:43 | 21.55730 | -104.45192 | 31306 ft | 429 kts | 310° |
| 2026-04-22 02:43 | 21.57807 | -104.47508 | 31623 ft | 431 kts | 310° |
| 2026-04-22 02:44 | 21.59893 | -104.49835 | 31889 ft | 433 kts | 310° |
| 2026-04-22 02:44 | 21.61957 | -104.52137 | 32188 ft | 434 kts | 310° |
| 2026-04-22 02:44 | 21.64054 | -104.54479 | 32538 ft | 434 kts | 310° |
| 2026-04-22 02:44 | 21.66147 | -104.56816 | 32917 ft | 433 kts | 310° |
| 2026-04-22 02:45 | 21.68235 | -104.59149 | 33324 ft | 432 kts | 310° |
| 2026-04-22 02:45 | 21.70317 | -104.61475 | 33723 ft | 431 kts | 310° |
| 2026-04-22 02:45 | 21.72394 | -104.63800 | 34129 ft | 429 kts | 310° |
| 2026-04-22 02:45 | 21.74459 | -104.66109 | 34452 ft | 428 kts | 310° |
| 2026-04-22 02:46 | 21.76523 | -104.68419 | 34718 ft | 428 kts | 309° |
| 2026-04-22 02:46 | 21.78592 | -104.70735 | 34972 ft | 428 kts | 309° |
| 2026-04-22 02:46 | 21.80656 | -104.73047 | 35213 ft | 428 kts | 309° |
| 2026-04-22 02:46 | 21.82722 | -104.75363 | 35476 ft | 428 kts | 309° |
| 2026-04-22 02:47 | 21.84784 | -104.77674 | 35739 ft | 428 kts | 309° |
| 2026-04-22 02:47 | 21.86849 | -104.79990 | 35968 ft | 428 kts | 309° |
| 2026-04-22 02:47 | 21.88915 | -104.82309 | 36182 ft | 429 kts | 309° |
| 2026-04-22 02:47 | 21.90978 | -104.84627 | 36417 ft | 429 kts | 309° |
| 2026-04-22 02:48 | 21.93022 | -104.86923 | 36622 ft | 429 kts | 309° |
| 2026-04-22 02:48 | 21.95084 | -104.89242 | 36861 ft | 428 kts | 309° |
| 2026-04-22 02:48 | 21.97145 | -104.91559 | 37096 ft | 428 kts | 309° |
| 2026-04-22 02:48 | 21.99206 | -104.93878 | 37310 ft | 427 kts | 309° |
| 2026-04-22 02:49 | 22.01262 | -104.96191 | 37537 ft | 427 kts | 309° |
| 2026-04-22 02:49 | 22.03312 | -104.98500 | 37762 ft | 426 kts | 309° |
| 2026-04-22 02:49 | 22.05359 | -105.00806 | 37982 ft | 425 kts | 309° |
| 2026-04-22 02:50 | 22.09449 | -105.05417 | 38052 ft | 424 kts | 309° |
| 2026-04-22 02:50 | 22.13510 | -105.10000 | 38054 ft | 423 kts | 309° |
| 2026-04-22 02:51 | 22.17580 | -105.14596 | 38048 ft | 423 kts | 309° |
| 2026-04-22 02:51 | 22.21640 | -105.19185 | 38043 ft | 422 kts | 309° |
| 2026-04-22 02:52 | 22.25694 | -105.23772 | 38042 ft | 422 kts | 309° |
| 2026-04-22 02:52 | 22.29735 | -105.28348 | 38033 ft | 421 kts | 309° |
| 2026-04-22 02:53 | 22.33771 | -105.32922 | 38037 ft | 420 kts | 309° |
| 2026-04-22 02:53 | 22.37801 | -105.37495 | 38028 ft | 420 kts | 309° |
| 2026-04-22 02:54 | 22.41829 | -105.42068 | 38027 ft | 420 kts | 309° |
| 2026-04-22 02:54 | 22.45851 | -105.46638 | 38020 ft | 419 kts | 309° |
| 2026-04-22 02:55 | 22.49872 | -105.51212 | 38035 ft | 419 kts | 309° |
| 2026-04-22 02:55 | 22.53885 | -105.55782 | 38023 ft | 419 kts | 309° |
| 2026-04-22 02:56 | 22.57899 | -105.60356 | 38025 ft | 419 kts | 309° |
| 2026-04-22 02:56 | 22.61908 | -105.64928 | 38031 ft | 419 kts | 309° |
| 2026-04-22 02:57 | 22.65918 | -105.69507 | 38025 ft | 419 kts | 309° |
| 2026-04-22 02:57 | 22.69928 | -105.74089 | 38016 ft | 419 kts | 309° |
| 2026-04-22 02:58 | 22.73934 | -105.78670 | 38016 ft | 418 kts | 309° |
| 2026-04-22 02:58 | 22.77937 | -105.83252 | 38015 ft | 418 kts | 309° |
| 2026-04-22 02:59 | 22.81938 | -105.87836 | 38020 ft | 418 kts | 309° |
| 2026-04-22 02:59 | 22.85929 | -105.92413 | 38019 ft | 418 kts | 309° |
| 2026-04-22 03:00 | 22.89899 | -105.96971 | 38018 ft | 418 kts | 309° |
| 2026-04-22 03:00 | 22.93913 | -106.01583 | 38022 ft | 417 kts | 309° |
| 2026-04-22 03:01 | 22.97874 | -106.06138 | 38033 ft | 417 kts | 309° |
| 2026-04-22 03:01 | 23.01884 | -106.10754 | 38029 ft | 417 kts | 309° |
| 2026-04-22 03:02 | 23.05869 | -106.15344 | 38027 ft | 417 kts | 309° |
| 2026-04-22 03:02 | 23.09819 | -106.19899 | 38029 ft | 417 kts | 309° |
| 2026-04-22 03:03 | 23.13795 | -106.24487 | 38031 ft | 417 kts | 309° |
| 2026-04-22 03:03 | 23.18227 | -106.28639 | 38040 ft | 423 kts | 320° |
| 2026-04-22 03:04 | 23.23035 | -106.32258 | 38023 ft | 424 kts | 320° |
| 2026-04-22 03:04 | 23.27910 | -106.35887 | 38034 ft | 424 kts | 320° |
| 2026-04-22 03:05 | 23.32784 | -106.39506 | 38027 ft | 423 kts | 320° |
| 2026-04-22 03:05 | 23.37645 | -106.43119 | 38025 ft | 423 kts | 320° |
| 2026-04-22 03:06 | 23.42519 | -106.46745 | 38032 ft | 423 kts | 320° |
| 2026-04-22 03:06 | 23.47345 | -106.50338 | 38029 ft | 422 kts | 320° |
| 2026-04-22 03:07 | 23.52192 | -106.53950 | 38024 ft | 422 kts | 320° |
| 2026-04-22 03:07 | 23.57042 | -106.57567 | 38025 ft | 422 kts | 320° |
| 2026-04-22 03:08 | 23.61883 | -106.61183 | 38025 ft | 422 kts | 320° |
| 2026-04-22 03:08 | 23.66724 | -106.64804 | 38021 ft | 422 kts | 320° |
| 2026-04-22 03:09 | 23.71559 | -106.68421 | 38023 ft | 421 kts | 320° |
| 2026-04-22 03:09 | 23.76394 | -106.72042 | 38024 ft | 421 kts | 320° |
| 2026-04-22 03:10 | 23.81227 | -106.75666 | 38023 ft | 421 kts | 320° |
| 2026-04-22 03:10 | 23.86058 | -106.79291 | 38022 ft | 421 kts | 320° |
| 2026-04-22 03:11 | 23.90884 | -106.82915 | 38025 ft | 421 kts | 320° |
| 2026-04-22 03:11 | 23.95716 | -106.86548 | 38022 ft | 420 kts | 320° |
| 2026-04-22 03:12 | 24.00536 | -106.90172 | 38024 ft | 420 kts | 320° |
| 2026-04-22 03:12 | 24.07761 | -106.95611 | 38026 ft | 420 kts | 320° |
| 2026-04-22 03:13 | 24.12575 | -106.99240 | 38027 ft | 420 kts | 320° |
| 2026-04-22 03:13 | 24.17380 | -107.02864 | 38023 ft | 420 kts | 320° |
| 2026-04-22 03:14 | 24.22187 | -107.06494 | 38024 ft | 419 kts | 320° |
| 2026-04-22 03:14 | 24.26990 | -107.10125 | 38028 ft | 419 kts | 320° |
| 2026-04-22 03:15 | 24.31791 | -107.13756 | 38025 ft | 419 kts | 320° |
| 2026-04-22 03:15 | 24.36583 | -107.17386 | 38023 ft | 418 kts | 320° |
| 2026-04-22 03:16 | 24.41138 | -107.20838 | 38022 ft | 418 kts | 320° |
| 2026-04-22 03:16 | 24.45927 | -107.24475 | 38026 ft | 418 kts | 320° |
| 2026-04-22 03:17 | 24.50710 | -107.28110 | 38026 ft | 417 kts | 320° |
| 2026-04-22 03:17 | 24.55485 | -107.31743 | 38029 ft | 417 kts | 320° |
| 2026-04-22 03:18 | 24.60264 | -107.35383 | 38031 ft | 417 kts | 320° |
| 2026-04-22 03:18 | 24.65034 | -107.39019 | 38036 ft | 417 kts | 320° |
| 2026-04-22 03:19 | 24.69799 | -107.42655 | 38038 ft | 417 kts | 320° |
| 2026-04-22 03:19 | 24.73759 | -107.45678 | 38037 ft | 417 kts | 320° |
| 2026-04-22 03:20 | 24.78366 | -107.49498 | 38045 ft | 413 kts | 316° |
| 2026-04-22 03:20 | 24.82872 | -107.53439 | 38039 ft | 414 kts | 316° |
| 2026-04-22 03:21 | 24.87394 | -107.57371 | 38036 ft | 414 kts | 316° |
| 2026-04-22 03:21 | 24.91911 | -107.61301 | 38030 ft | 414 kts | 316° |
| 2026-04-22 03:22 | 24.96427 | -107.65233 | 38027 ft | 413 kts | 316° |
| 2026-04-22 03:22 | 25.00910 | -107.69140 | 38027 ft | 413 kts | 316° |
| 2026-04-22 03:23 | 25.05417 | -107.73072 | 38009 ft | 413 kts | 316° |
| 2026-04-22 03:23 | 25.09923 | -107.77012 | 38017 ft | 413 kts | 316° |
| 2026-04-22 03:24 | 25.14428 | -107.80963 | 38025 ft | 413 kts | 316° |
| 2026-04-22 03:24 | 25.18922 | -107.84909 | 38017 ft | 412 kts | 316° |
| 2026-04-22 03:25 | 25.23412 | -107.88853 | 38026 ft | 413 kts | 316° |
| 2026-04-22 03:25 | 25.27902 | -107.92802 | 38020 ft | 412 kts | 316° |
| 2026-04-22 03:26 | 25.32387 | -107.96754 | 38022 ft | 412 kts | 316° |
| 2026-04-22 03:26 | 25.36843 | -108.00683 | 38017 ft | 410 kts | 316° |
| 2026-04-22 03:27 | 25.41318 | -108.04633 | 38024 ft | 412 kts | 316° |
| 2026-04-22 03:27 | 25.45799 | -108.08592 | 38021 ft | 412 kts | 316° |
| 2026-04-22 03:28 | 25.50275 | -108.12550 | 38021 ft | 412 kts | 316° |
| 2026-04-22 03:28 | 25.54749 | -108.16512 | 38016 ft | 411 kts | 316° |
| 2026-04-22 03:29 | 25.59218 | -108.20474 | 38017 ft | 411 kts | 316° |
| 2026-04-22 03:29 | 25.63688 | -108.24441 | 38018 ft | 411 kts | 316° |
| 2026-04-22 03:30 | 25.68151 | -108.28405 | 38017 ft | 411 kts | 316° |
| 2026-04-22 03:30 | 25.72610 | -108.32370 | 38018 ft | 410 kts | 316° |
| 2026-04-22 03:31 | 25.77037 | -108.36311 | 38017 ft | 410 kts | 316° |
| 2026-04-22 03:31 | 25.81488 | -108.40276 | 38014 ft | 410 kts | 316° |
| 2026-04-22 03:32 | 25.85933 | -108.44241 | 38017 ft | 409 kts | 316° |
| 2026-04-22 03:32 | 25.90368 | -108.48201 | 38015 ft | 409 kts | 316° |
| 2026-04-22 03:33 | 25.94809 | -108.52169 | 38019 ft | 409 kts | 316° |
| 2026-04-22 03:33 | 25.99246 | -108.56139 | 38021 ft | 409 kts | 316° |
| 2026-04-22 03:34 | 26.03674 | -108.60104 | 37975 ft | 409 kts | 316° |
| 2026-04-22 03:34 | 26.08103 | -108.64071 | 38025 ft | 409 kts | 316° |
| 2026-04-22 03:35 | 26.12531 | -108.68046 | 38025 ft | 408 kts | 316° |
| 2026-04-22 03:35 | 26.16953 | -108.72019 | 38015 ft | 408 kts | 316° |
| 2026-04-22 03:36 | 26.21375 | -108.75995 | 38019 ft | 408 kts | 316° |
| 2026-04-22 03:36 | 26.25791 | -108.79969 | 38015 ft | 408 kts | 316° |
| 2026-04-22 03:37 | 26.30210 | -108.83951 | 38018 ft | 408 kts | 316° |
| 2026-04-22 03:37 | 26.34599 | -108.87909 | 38021 ft | 408 kts | 316° |
| 2026-04-22 03:38 | 26.39009 | -108.91891 | 38017 ft | 408 kts | 316° |
| 2026-04-22 03:38 | 26.43413 | -108.95871 | 38021 ft | 408 kts | 316° |
| 2026-04-22 03:39 | 26.47825 | -108.99862 | 38018 ft | 407 kts | 316° |
| 2026-04-22 03:39 | 26.52229 | -109.03850 | 38017 ft | 408 kts | 316° |
| 2026-04-22 03:40 | 26.56635 | -109.07844 | 38020 ft | 408 kts | 316° |
| 2026-04-22 03:40 | 26.61039 | -109.11840 | 38021 ft | 407 kts | 316° |
| 2026-04-22 03:41 | 26.65445 | -109.15842 | 38017 ft | 407 kts | 316° |
| 2026-04-22 03:41 | 26.69840 | -109.19838 | 38019 ft | 407 kts | 316° |
| 2026-04-22 03:42 | 26.74207 | -109.23813 | 38021 ft | 407 kts | 316° |
| 2026-04-22 03:42 | 26.78606 | -109.27821 | 38019 ft | 407 kts | 316° |
| 2026-04-22 03:43 | 26.83002 | -109.31830 | 38018 ft | 407 kts | 316° |
| 2026-04-22 03:43 | 26.87371 | -109.35819 | 38012 ft | 407 kts | 315° |
| 2026-04-22 03:44 | 26.91764 | -109.39835 | 38012 ft | 407 kts | 315° |
| 2026-04-22 03:44 | 26.96124 | -109.43822 | 38012 ft | 406 kts | 315° |
| 2026-04-22 03:45 | 27.00515 | -109.47844 | 38017 ft | 406 kts | 315° |
| 2026-04-22 03:45 | 27.04895 | -109.51862 | 38015 ft | 406 kts | 315° |
| 2026-04-22 03:46 | 27.09269 | -109.55878 | 38016 ft | 406 kts | 315° |
| 2026-04-22 03:46 | 27.13615 | -109.59873 | 38018 ft | 406 kts | 315° |
| 2026-04-22 03:47 | 27.17991 | -109.63900 | 38014 ft | 406 kts | 315° |
| 2026-04-22 03:47 | 27.22360 | -109.67923 | 38015 ft | 406 kts | 315° |
| 2026-04-22 03:48 | 27.26736 | -109.71958 | 38015 ft | 406 kts | 315° |
| 2026-04-22 03:48 | 27.31100 | -109.75986 | 38013 ft | 406 kts | 315° |
| 2026-04-22 03:49 | 27.35442 | -109.79997 | 38012 ft | 406 kts | 315° |
| 2026-04-22 03:49 | 27.39800 | -109.84045 | 38014 ft | 405 kts | 315° |
| 2026-04-22 03:50 | 27.44126 | -109.88123 | 38009 ft | 405 kts | 315° |
| 2026-04-22 03:50 | 27.48454 | -109.92202 | 38010 ft | 405 kts | 315° |
| 2026-04-22 03:51 | 27.52762 | -109.96265 | 38016 ft | 405 kts | 315° |
| 2026-04-22 03:51 | 27.57085 | -110.00347 | 38011 ft | 405 kts | 315° |
| 2026-04-22 03:52 | 27.61419 | -110.04444 | 38011 ft | 405 kts | 315° |
| 2026-04-22 03:52 | 27.65717 | -110.08511 | 38015 ft | 405 kts | 315° |
| 2026-04-22 03:53 | 27.70036 | -110.12603 | 38009 ft | 405 kts | 314° |
| 2026-04-22 03:53 | 27.74361 | -110.16703 | 38014 ft | 405 kts | 314° |
| 2026-04-22 03:54 | 27.78684 | -110.20809 | 38014 ft | 405 kts | 314° |
| 2026-04-22 03:54 | 27.83001 | -110.24912 | 37997 ft | 405 kts | 314° |
| 2026-04-22 03:55 | 27.87298 | -110.29000 | 38003 ft | 406 kts | 314° |
| 2026-04-22 03:55 | 27.91614 | -110.33110 | 38052 ft | 406 kts | 314° |
| 2026-04-22 03:56 | 27.95935 | -110.37230 | 38012 ft | 405 kts | 314° |
| 2026-04-22 03:56 | 28.00214 | -110.41313 | 38014 ft | 405 kts | 314° |
| 2026-04-22 03:57 | 28.04520 | -110.45427 | 38011 ft | 405 kts | 314° |
| 2026-04-22 03:57 | 28.08829 | -110.49549 | 38011 ft | 405 kts | 314° |
| 2026-04-22 03:58 | 28.13135 | -110.53672 | 38012 ft | 405 kts | 314° |
| 2026-04-22 03:58 | 28.17419 | -110.57779 | 38011 ft | 405 kts | 314° |
| 2026-04-22 03:59 | 28.21719 | -110.61905 | 38013 ft | 405 kts | 314° |
| 2026-04-22 03:59 | 28.26021 | -110.66039 | 38013 ft | 405 kts | 314° |
| 2026-04-22 04:00 | 28.30323 | -110.70176 | 38017 ft | 405 kts | 314° |
| 2026-04-22 04:00 | 28.34619 | -110.74313 | 38013 ft | 405 kts | 314° |
| 2026-04-22 04:01 | 28.38895 | -110.78434 | 38021 ft | 405 kts | 314° |
| 2026-04-22 04:01 | 28.43196 | -110.82584 | 38014 ft | 405 kts | 314° |
| 2026-04-22 04:02 | 28.46771 | -110.86037 | 38015 ft | 406 kts | 314° |
| 2026-04-22 04:02 | 28.51078 | -110.90202 | 38018 ft | 406 kts | 314° |
| 2026-04-22 04:03 | 28.55380 | -110.94365 | 38008 ft | 406 kts | 314° |
| 2026-04-22 04:03 | 28.59682 | -110.98535 | 38019 ft | 407 kts | 314° |
| 2026-04-22 04:04 | 28.63991 | -111.02715 | 38015 ft | 407 kts | 314° |
| 2026-04-22 04:04 | 28.68282 | -111.06883 | 38013 ft | 408 kts | 314° |
| 2026-04-22 04:05 | 28.72610 | -111.11091 | 38010 ft | 408 kts | 314° |
| 2026-04-22 04:05 | 28.76930 | -111.15296 | 38008 ft | 408 kts | 314° |
| 2026-04-22 04:06 | 28.81251 | -111.19507 | 38011 ft | 409 kts | 313° |
| 2026-04-22 04:06 | 28.85553 | -111.23704 | 38010 ft | 409 kts | 313° |
| 2026-04-22 04:07 | 28.89887 | -111.27937 | 38015 ft | 410 kts | 313° |
| 2026-04-22 04:07 | 28.94229 | -111.32183 | 38017 ft | 410 kts | 313° |
| 2026-04-22 04:08 | 28.98548 | -111.36411 | 38017 ft | 410 kts | 313° |
| 2026-04-22 04:08 | 29.02890 | -111.40666 | 38010 ft | 411 kts | 313° |
| 2026-04-22 04:09 | 29.07234 | -111.44928 | 38005 ft | 411 kts | 313° |
| 2026-04-22 04:09 | 29.11557 | -111.49175 | 38000 ft | 412 kts | 313° |
| 2026-04-22 04:10 | 29.15913 | -111.53459 | 38001 ft | 412 kts | 313° |
| 2026-04-22 04:10 | 29.20244 | -111.57723 | 38004 ft | 413 kts | 313° |
| 2026-04-22 04:11 | 29.24609 | -111.62026 | 38003 ft | 413 kts | 313° |
| 2026-04-22 04:11 | 29.28944 | -111.66304 | 38000 ft | 413 kts | 313° |
| 2026-04-22 04:12 | 29.33311 | -111.70619 | 37999 ft | 414 kts | 313° |
| 2026-04-22 04:12 | 29.37661 | -111.74922 | 37999 ft | 414 kts | 313° |
| 2026-04-22 04:13 | 29.42030 | -111.79249 | 37996 ft | 414 kts | 313° |
| 2026-04-22 04:13 | 29.46397 | -111.83579 | 38002 ft | 415 kts | 313° |
| 2026-04-22 04:14 | 29.50767 | -111.87917 | 38001 ft | 415 kts | 313° |
| 2026-04-22 04:14 | 29.55114 | -111.92238 | 38002 ft | 416 kts | 313° |
| 2026-04-22 04:15 | 29.59492 | -111.96594 | 38007 ft | 416 kts | 313° |
| 2026-04-22 04:15 | 29.63877 | -112.00962 | 38007 ft | 416 kts | 313° |
| 2026-04-22 04:16 | 29.70425 | -112.07496 | 38009 ft | 417 kts | 313° |
| 2026-04-22 04:17 | 29.74806 | -112.11873 | 38012 ft | 417 kts | 313° |
| 2026-04-22 04:17 | 29.79195 | -112.16265 | 38003 ft | 418 kts | 313° |
| 2026-04-22 04:18 | 29.83592 | -112.20669 | 38005 ft | 418 kts | 313° |
| 2026-04-22 04:18 | 29.87955 | -112.25044 | 38004 ft | 419 kts | 313° |
| 2026-04-22 04:19 | 29.92366 | -112.29473 | 38007 ft | 419 kts | 313° |
| 2026-04-22 04:19 | 29.96767 | -112.33897 | 37998 ft | 420 kts | 313° |
| 2026-04-22 04:20 | 30.01172 | -112.38331 | 38010 ft | 420 kts | 313° |
| 2026-04-22 04:20 | 30.05556 | -112.42750 | 38009 ft | 421 kts | 313° |
| 2026-04-22 04:21 | 30.09973 | -112.47206 | 37999 ft | 421 kts | 313° |
| 2026-04-22 04:21 | 30.14388 | -112.51666 | 37989 ft | 422 kts | 313° |
| 2026-04-22 04:22 | 30.18810 | -112.56140 | 37994 ft | 422 kts | 313° |
| 2026-04-22 04:22 | 30.23237 | -112.60623 | 37982 ft | 423 kts | 313° |
| 2026-04-22 04:23 | 30.27643 | -112.65091 | 37982 ft | 423 kts | 313° |
| 2026-04-22 04:23 | 30.32080 | -112.69595 | 37985 ft | 424 kts | 313° |
| 2026-04-22 04:24 | 30.36513 | -112.74102 | 37980 ft | 424 kts | 313° |
| 2026-04-22 04:24 | 30.40963 | -112.78632 | 37981 ft | 425 kts | 313° |
| 2026-04-22 04:25 | 30.45379 | -112.83132 | 37986 ft | 426 kts | 313° |
| 2026-04-22 04:25 | 30.49840 | -112.87684 | 37981 ft | 426 kts | 313° |
| 2026-04-22 04:26 | 30.54292 | -112.92232 | 37973 ft | 427 kts | 313° |
| 2026-04-22 04:26 | 30.58751 | -112.96794 | 37974 ft | 427 kts | 313° |
| 2026-04-22 04:27 | 30.63217 | -113.01368 | 37975 ft | 428 kts | 313° |
| 2026-04-22 04:27 | 30.67662 | -113.05927 | 37975 ft | 428 kts | 313° |
| 2026-04-22 04:28 | 30.72131 | -113.10516 | 37972 ft | 428 kts | 313° |
| 2026-04-22 04:28 | 30.76606 | -113.15118 | 37970 ft | 429 kts | 312° |
| 2026-04-22 04:29 | 30.81051 | -113.19695 | 37971 ft | 429 kts | 312° |
| 2026-04-22 04:29 | 30.85533 | -113.24316 | 37973 ft | 430 kts | 312° |
| 2026-04-22 04:30 | 30.90014 | -113.28941 | 37974 ft | 430 kts | 312° |
| 2026-04-22 04:30 | 30.94500 | -113.33577 | 37971 ft | 431 kts | 312° |
| 2026-04-22 04:31 | 30.98996 | -113.38232 | 37970 ft | 432 kts | 312° |
| 2026-04-22 04:31 | 31.03471 | -113.42868 | 37968 ft | 432 kts | 312° |
| 2026-04-22 04:32 | 31.07974 | -113.47541 | 37969 ft | 432 kts | 312° |
| 2026-04-22 04:32 | 31.12456 | -113.52198 | 37967 ft | 433 kts | 312° |
| 2026-04-22 04:33 | 31.16964 | -113.56889 | 37970 ft | 434 kts | 312° |
| 2026-04-22 04:33 | 31.21454 | -113.61566 | 37967 ft | 434 kts | 312° |
| 2026-04-22 04:34 | 31.25984 | -113.66290 | 37970 ft | 435 kts | 313° |
| 2026-04-22 04:34 | 31.30478 | -113.70983 | 37967 ft | 435 kts | 313° |
| 2026-04-22 04:35 | 31.35005 | -113.75717 | 37967 ft | 436 kts | 313° |
| 2026-04-22 04:35 | 31.39508 | -113.80431 | 37970 ft | 436 kts | 313° |
| 2026-04-22 04:36 | 31.44038 | -113.85181 | 37967 ft | 437 kts | 313° |
| 2026-04-22 04:36 | 31.48569 | -113.89937 | 37974 ft | 438 kts | 313° |
| 2026-04-22 04:37 | 31.53112 | -113.94713 | 37977 ft | 438 kts | 313° |
| 2026-04-22 04:37 | 31.57633 | -113.99472 | 37971 ft | 439 kts | 313° |
| 2026-04-22 04:38 | 31.62050 | -114.04401 | 37970 ft | 433 kts | 304° |
| 2026-04-22 04:38 | 31.65925 | -114.09842 | 37978 ft | 435 kts | 305° |
| 2026-04-22 04:39 | 31.69813 | -114.15302 | 37975 ft | 435 kts | 305° |
| 2026-04-22 04:39 | 31.73679 | -114.20745 | 37979 ft | 436 kts | 305° |
| 2026-04-22 04:40 | 31.77568 | -114.26228 | 37978 ft | 436 kts | 304° |
| 2026-04-22 04:40 | 31.81464 | -114.31731 | 37978 ft | 437 kts | 304° |
| 2026-04-22 04:41 | 31.85342 | -114.37214 | 37983 ft | 437 kts | 305° |
| 2026-04-22 04:41 | 31.89242 | -114.42737 | 37982 ft | 438 kts | 305° |
| 2026-04-22 04:42 | 31.93140 | -114.48265 | 37978 ft | 438 kts | 305° |
| 2026-04-22 04:42 | 31.97012 | -114.53765 | 37974 ft | 439 kts | 305° |
| 2026-04-22 04:43 | 32.00910 | -114.59310 | 37977 ft | 439 kts | 305° |
| 2026-04-22 04:43 | 32.04790 | -114.64838 | 37978 ft | 440 kts | 305° |
| 2026-04-22 04:44 | 32.08688 | -114.70397 | 37975 ft | 440 kts | 305° |
| 2026-04-22 04:44 | 32.12591 | -114.75974 | 37976 ft | 441 kts | 305° |
| 2026-04-22 04:45 | 32.16497 | -114.81562 | 37973 ft | 441 kts | 305° |
| 2026-04-22 04:45 | 32.20404 | -114.87161 | 37973 ft | 442 kts | 305° |
| 2026-04-22 04:46 | 32.24291 | -114.92739 | 37980 ft | 442 kts | 305° |
| 2026-04-22 04:46 | 32.28203 | -114.98361 | 37967 ft | 443 kts | 305° |
| 2026-04-22 04:47 | 32.32098 | -115.03965 | 37984 ft | 443 kts | 305° |
| 2026-04-22 04:47 | 32.35641 | -115.09886 | 37990 ft | 440 kts | 298° |
| 2026-04-22 04:48 | 32.38408 | -115.15006 | 37992 ft | 440 kts | 298° |
| 2026-04-22 04:48 | 32.41681 | -115.21097 | 37994 ft | 441 kts | 298° |
| 2026-04-22 04:49 | 32.44977 | -115.27249 | 37990 ft | 441 kts | 298° |
| 2026-04-22 04:49 | 32.48267 | -115.33398 | 37997 ft | 442 kts | 298° |
| 2026-04-22 04:50 | 32.51558 | -115.39559 | 37996 ft | 442 kts | 298° |
| 2026-04-22 04:50 | 32.54828 | -115.45694 | 37998 ft | 443 kts | 298° |
| 2026-04-22 04:51 | 32.58129 | -115.51893 | 37998 ft | 443 kts | 298° |
| 2026-04-22 04:51 | 32.61421 | -115.58089 | 38007 ft | 444 kts | 298° |
| 2026-04-22 04:52 | 32.64718 | -115.64300 | 38019 ft | 444 kts | 298° |
| 2026-04-22 04:52 | 32.67987 | -115.70487 | 38025 ft | 445 kts | 298° |
| 2026-04-22 04:53 | 32.71287 | -115.76735 | 38023 ft | 445 kts | 298° |
| 2026-04-22 04:53 | 32.72929 | -115.79850 | 37898 ft | 443 kts | 298° |
| 2026-04-22 04:53 | 32.74566 | -115.82956 | 37184 ft | 443 kts | 298° |
| 2026-04-22 04:53 | 32.76180 | -115.86023 | 36485 ft | 443 kts | 298° |
| 2026-04-22 04:54 | 32.77811 | -115.89123 | 35990 ft | 439 kts | 298° |
| 2026-04-22 04:54 | 32.79424 | -115.92192 | 35533 ft | 435 kts | 298° |
| 2026-04-22 04:54 | 32.80988 | -115.95257 | 34977 ft | 433 kts | 297° |
| 2026-04-22 04:54 | 32.82526 | -115.98336 | 34412 ft | 432 kts | 297° |
| 2026-04-22 04:55 | 32.84061 | -116.01396 | 33930 ft | 428 kts | 298° |
| 2026-04-22 04:55 | 32.85565 | -116.04397 | 33395 ft | 426 kts | 297° |
| 2026-04-22 04:55 | 32.87079 | -116.07417 | 32897 ft | 422 kts | 297° |
| 2026-04-22 04:55 | 32.88581 | -116.10412 | 32410 ft | 419 kts | 297° |
| 2026-04-22 04:56 | 32.90068 | -116.13381 | 31926 ft | 416 kts | 297° |
| 2026-04-22 04:56 | 32.91543 | -116.16331 | 31449 ft | 413 kts | 297° |
| 2026-04-22 04:56 | 32.93011 | -116.19266 | 30977 ft | 411 kts | 296° |
| 2026-04-22 04:56 | 32.94467 | -116.22182 | 30509 ft | 409 kts | 296° |
| 2026-04-22 04:57 | 32.95919 | -116.25089 | 30028 ft | 407 kts | 296° |
| 2026-04-22 04:57 | 32.97361 | -116.27980 | 29494 ft | 404 kts | 296° |
| 2026-04-22 04:57 | 32.98776 | -116.30820 | 29048 ft | 401 kts | 296° |
| 2026-04-22 04:57 | 33.00196 | -116.33669 | 28617 ft | 397 kts | 296° |
| 2026-04-22 04:58 | 33.01599 | -116.36490 | 28184 ft | 394 kts | 296° |
| 2026-04-22 04:58 | 33.02994 | -116.39296 | 27752 ft | 391 kts | 296° |
| 2026-04-22 04:58 | 33.04376 | -116.42080 | 27326 ft | 388 kts | 295° |
| 2026-04-22 04:58 | 33.05502 | -116.44973 | 26853 ft | 383 kts | 289° |
| 2026-04-22 04:59 | 33.06563 | -116.47874 | 26464 ft | 380 kts | 290° |
| 2026-04-22 04:59 | 33.07637 | -116.50745 | 26085 ft | 378 kts | 290° |
| 2026-04-22 04:59 | 33.08699 | -116.53556 | 25705 ft | 376 kts | 290° |
| 2026-04-22 04:59 | 33.09776 | -116.56395 | 25311 ft | 374 kts | 290° |
| 2026-04-22 05:00 | 33.10854 | -116.59233 | 24929 ft | 373 kts | 290° |
| 2026-04-22 05:00 | 33.11926 | -116.62055 | 24543 ft | 371 kts | 290° |
| 2026-04-22 05:00 | 33.12982 | -116.64860 | 24172 ft | 370 kts | 288° |
| 2026-04-22 05:00 | 33.13622 | -116.67769 | 23673 ft | 366 kts | 275° |
| 2026-04-22 05:01 | 33.14047 | -116.70763 | 23229 ft | 366 kts | 276° |
| 2026-04-22 05:01 | 33.14494 | -116.73758 | 22801 ft | 365 kts | 276° |
| 2026-04-22 05:01 | 33.14933 | -116.76737 | 22365 ft | 364 kts | 276° |
| 2026-04-22 05:01 | 33.15371 | -116.79715 | 21937 ft | 363 kts | 276° |
| 2026-04-22 05:02 | 33.15806 | -116.82687 | 21503 ft | 363 kts | 276° |
| 2026-04-22 05:02 | 33.16240 | -116.85655 | 21069 ft | 362 kts | 276° |
| 2026-04-22 05:02 | 33.16667 | -116.88580 | 20646 ft | 362 kts | 276° |
| 2026-04-22 05:02 | 33.17098 | -116.91540 | 20209 ft | 361 kts | 276° |
| 2026-04-22 05:03 | 33.17528 | -116.94497 | 19787 ft | 360 kts | 276° |
| 2026-04-22 05:03 | 33.17957 | -116.97447 | 19359 ft | 360 kts | 276° |
| 2026-04-22 05:03 | 33.18384 | -117.00391 | 18908 ft | 360 kts | 276° |
| 2026-04-22 05:03 | 33.18811 | -117.03346 | 18487 ft | 361 kts | 276° |
| 2026-04-22 05:04 | 33.19238 | -117.06296 | 18003 ft | 360 kts | 276° |
| 2026-04-22 05:04 | 33.19663 | -117.09243 | 17548 ft | 359 kts | 276° |
| 2026-04-22 05:04 | 33.20085 | -117.12179 | 17120 ft | 358 kts | 276° |
| 2026-04-22 05:04 | 33.20506 | -117.15105 | 16701 ft | 356 kts | 276° |
| 2026-04-22 05:05 | 33.20918 | -117.17975 | 16280 ft | 354 kts | 276° |
| 2026-04-22 05:05 | 33.21334 | -117.20880 | 15868 ft | 353 kts | 276° |
| 2026-04-22 05:05 | 33.21747 | -117.23771 | 15439 ft | 351 kts | 276° |
| 2026-04-22 05:05 | 33.22157 | -117.26644 | 15023 ft | 349 kts | 277° |
| 2026-04-22 05:06 | 33.22564 | -117.29499 | 14612 ft | 348 kts | 277° |
| 2026-04-22 05:06 | 33.22981 | -117.32341 | 14239 ft | 345 kts | 278° |
| 2026-04-22 05:06 | 33.23414 | -117.35104 | 13978 ft | 339 kts | 278° |
| 2026-04-22 05:06 | 33.23842 | -117.37844 | 13757 ft | 331 kts | 277° |
| 2026-04-22 05:07 | 33.24257 | -117.40516 | 13577 ft | 322 kts | 277° |
| 2026-04-22 05:07 | 33.24661 | -117.43120 | 13399 ft | 314 kts | 277° |
| 2026-04-22 05:07 | 33.25053 | -117.45651 | 13236 ft | 305 kts | 277° |
| 2026-04-22 05:07 | 33.25433 | -117.48109 | 13074 ft | 297 kts | 277° |
| 2026-04-22 05:08 | 33.25809 | -117.50543 | 12927 ft | 298 kts | 277° |
| 2026-04-22 05:08 | 33.26246 | -117.52940 | 12718 ft | 300 kts | 287° |
| 2026-04-22 05:08 | 33.27266 | -117.55124 | 12480 ft | 302 kts | 299° |
| 2026-04-22 05:08 | 33.28398 | -117.57244 | 12285 ft | 303 kts | 298° |
| 2026-04-22 05:09 | 33.29529 | -117.59363 | 12101 ft | 303 kts | 299° |
| 2026-04-22 05:09 | 33.30667 | -117.61484 | 11913 ft | 302 kts | 299° |
| 2026-04-22 05:09 | 33.31800 | -117.63594 | 11741 ft | 301 kts | 299° |
| 2026-04-22 05:09 | 33.32934 | -117.65704 | 11524 ft | 301 kts | 299° |
| 2026-04-22 05:10 | 33.34068 | -117.67813 | 11280 ft | 300 kts | 299° |
| 2026-04-22 05:10 | 33.35196 | -117.69913 | 11077 ft | 299 kts | 299° |
| 2026-04-22 05:10 | 33.36306 | -117.71979 | 10892 ft | 299 kts | 299° |
| 2026-04-22 05:10 | 33.37430 | -117.74072 | 10713 ft | 299 kts | 299° |
| 2026-04-22 05:11 | 33.38554 | -117.76167 | 10542 ft | 298 kts | 299° |
| 2026-04-22 05:11 | 33.39672 | -117.78253 | 10368 ft | 296 kts | 299° |
| 2026-04-22 05:11 | 33.40775 | -117.80311 | 10196 ft | 290 kts | 299° |
| 2026-04-22 05:11 | 33.41837 | -117.82293 | 10027 ft | 283 kts | 299° |
| 2026-04-22 05:12 | 33.42899 | -117.84277 | 9860 ft | 282 kts | 298° |
| 2026-04-22 05:12 | 33.43959 | -117.86258 | 9673 ft | 281 kts | 299° |
| 2026-04-22 05:12 | 33.45014 | -117.88231 | 9513 ft | 281 kts | 299° |
| 2026-04-22 05:12 | 33.46064 | -117.90196 | 9345 ft | 280 kts | 299° |
| 2026-04-22 05:13 | 33.47142 | -117.92140 | 9175 ft | 280 kts | 306° |
| 2026-04-22 05:13 | 33.48659 | -117.93564 | 8979 ft | 284 kts | 332° |
| 2026-04-22 05:13 | 33.50513 | -117.94428 | 8842 ft | 286 kts | 336° |
| 2026-04-22 05:13 | 33.52379 | -117.95266 | 8681 ft | 286 kts | 337° |
| 2026-04-22 05:14 | 33.54246 | -117.96093 | 8507 ft | 284 kts | 337° |
| 2026-04-22 05:14 | 33.56099 | -117.96907 | 8347 ft | 283 kts | 337° |
| 2026-04-22 05:14 | 33.57949 | -117.97716 | 8183 ft | 282 kts | 338° |
| 2026-04-22 05:14 | 33.59766 | -117.98509 | 8028 ft | 281 kts | 338° |
| 2026-04-22 05:15 | 33.61608 | -117.99312 | 7853 ft | 280 kts | 338° |
| 2026-04-22 05:15 | 33.63462 | -118.00032 | 7668 ft | 279 kts | 341° |
| 2026-04-22 05:15 | 33.65322 | -118.00707 | 7482 ft | 278 kts | 341° |
| 2026-04-22 05:15 | 33.67153 | -118.01380 | 7312 ft | 277 kts | 341° |
| 2026-04-22 05:16 | 33.68992 | -118.02059 | 7109 ft | 276 kts | 341° |
| 2026-04-22 05:16 | 33.70829 | -118.02734 | 7006 ft | 274 kts | 341° |
| 2026-04-22 05:16 | 33.72658 | -118.03401 | 6989 ft | 275 kts | 341° |
| 2026-04-22 05:16 | 33.74487 | -118.04070 | 6983 ft | 275 kts | 341° |
| 2026-04-22 05:17 | 33.76285 | -118.04727 | 6971 ft | 263 kts | 341° |
| 2026-04-22 05:17 | 33.77974 | -118.05346 | 6971 ft | 249 kts | 340° |
| 2026-04-22 05:17 | 33.79572 | -118.06078 | 6782 ft | 244 kts | 335° |
| 2026-04-22 05:17 | 33.81141 | -118.06841 | 6495 ft | 243 kts | 336° |
| 2026-04-22 05:18 | 33.84283 | -118.08347 | 5914 ft | 242 kts | 336° |
| 2026-04-22 05:18 | 33.85846 | -118.09091 | 5662 ft | 241 kts | 336° |
| 2026-04-22 05:18 | 33.87351 | -118.09806 | 5388 ft | 240 kts | 336° |
| 2026-04-22 05:19 | 33.88886 | -118.10516 | 5122 ft | 239 kts | 342° |
| 2026-04-22 05:19 | 33.90538 | -118.10774 | 4958 ft | 234 kts | 355° |
| 2026-04-22 05:19 | 33.91955 | -118.10877 | 4652 ft | 236 kts | 351° |
| 2026-04-22 05:19 | 33.93490 | -118.11633 | 4308 ft | 233 kts | 322° |
| 2026-04-22 05:20 | 33.94770 | -118.12810 | 4060 ft | 229 kts | 317° |
| 2026-04-22 05:20 | 33.95661 | -118.14349 | 3830 ft | 223 kts | 289° |
| 2026-04-22 05:20 | 33.95943 | -118.16150 | 3672 ft | 214 kts | 271° |
| 2026-04-22 05:20 | 33.95848 | -118.17894 | 3514 ft | 207 kts | 262° |
| 2026-04-22 05:21 | 33.95649 | -118.19608 | 3247 ft | 206 kts | 263° |
| 2026-04-22 05:21 | 33.95465 | -118.21308 | 2974 ft | 203 kts | 263° |
| 2026-04-22 05:21 | 33.95294 | -118.22974 | 2697 ft | 199 kts | 263° |
| 2026-04-22 05:21 | 33.95129 | -118.24597 | 2445 ft | 188 kts | 263° |
| 2026-04-22 05:22 | 33.94979 | -118.26059 | 2200 ft | 165 kts | 264° |
| 2026-04-22 05:22 | 33.94844 | -118.27393 | 1991 ft | 158 kts | 264° |
| 2026-04-22 05:22 | 33.94711 | -118.28699 | 1774 ft | 157 kts | 264° |
| 2026-04-22 05:22 | 33.94578 | -118.30000 | 1561 ft | 156 kts | 263° |
| 2026-04-22 05:23 | 33.94448 | -118.31282 | 1357 ft | 155 kts | 263° |
| 2026-04-22 05:23 | 33.94317 | -118.32566 | 1152 ft | 155 kts | 263° |
| 2026-04-22 05:23 | 33.94186 | -118.33853 | 923 ft | 154 kts | 264° |
| 2026-04-22 05:23 | 33.94062 | -118.35078 | 682 ft | 142 kts | 263° |
| 2026-04-22 05:24 | 33.93942 | -118.36239 | 481 ft | 139 kts | 264° |
| 2026-04-22 05:24 | 33.93826 | -118.37390 | 276 ft | 137 kts | 264° |
| 2026-04-22 05:24 | 33.93713 | -118.38519 | 125 ft | 132 kts | 263° |
| 2026-04-22 05:24 | 33.93613 | -118.39504 | 112 ft | 101 kts | 262° |
| 2026-04-22 05:25 | 33.93552 | -118.40085 | 115 ft | 44 kts | 263° |
| 2026-04-22 05:25 | 33.93533 | -118.40340 | 113 ft | 29 kts | 270° |
| 2026-04-22 05:25 | 33.93574 | -118.40579 | 110 ft | 31 kts | 295° |
| 2026-04-22 05:25 | 33.93595 | -118.40809 | 107 ft | 21 kts | 279° |
| 2026-04-22 05:26 | 33.93649 | -118.40894 | 109 ft | 12 kts | 349° |
| 2026-04-22 05:26 | 33.93740 | -118.40907 | 108 ft | 13 kts | 353° |
| 2026-04-22 05:26 | 33.93823 | -118.40919 | 101 ft | 12 kts | 353° |
| 2026-04-22 05:26 | 33.93863 | -118.40915 | 101 ft | 7 kts | 39° |
| 2026-04-22 05:27 | 33.93874 | -118.40850 | 100 ft | 9 kts | 82° |
| 2026-04-22 05:27 | 33.93917 | -118.40811 | 99 ft | 9 kts | 360° |
| 2026-04-22 05:27 | 33.93953 | -118.40816 | 100 ft | 3 kts | 352° |
| 2026-04-22 05:27 | 33.93954 | -118.40816 | 100 ft | 0 kts | 352° |
| 2026-04-22 05:29 | 33.93960 | -118.40817 | 99 ft | 3 kts | 352° |
| 2026-04-22 05:29 | 33.93990 | -118.40821 | 99 ft | 6 kts | 352° |
| 2026-04-22 05:29 | 33.94028 | -118.40833 | 97 ft | 5 kts | 315° |
| 2026-04-22 05:30 | 33.94031 | -118.40846 | 100 ft | 3 kts | 276° |
| 2026-04-22 05:30 | 33.94028 | -118.40880 | 99 ft | 5 kts | 260° |
| 2026-04-22 05:30 | 33.94024 | -118.40912 | 99 ft | 0 kts | 263° |
| 2026-04-22 05:30 | 33.94024 | -118.40919 | 98 ft | 1 kts | 263° |
| 2026-04-22 05:31 | 33.94023 | -118.40928 | 98 ft | 0 kts | 263° |